West Olive, MI

4:54 PM EDT on March 29, 2015 (GMT -0400)
Gerald R. Ford International | | Change Station
CLOSE
Current Station
Airport
Location: Grand Rapids,
Elevation: 804 ft
Nearby Weather Stations

Elev 804 ft 42.88 °N, 85.52 °W | Updated 11 minutes ago

Rain
Rain
34 °F
Feels Like 25 °F
N
14
Wind Variable Wind from SSW

Today
High -- | Low -- °F
--% Chance of Precip.
Yesterday
High -- | Low -- °F
Precip. -- in
7:32 AM 8:06 PM
Waxing Gibbous, 74% visible
Pressure 29.84 in
Visibility 3.0 miles
Clouds Scattered Clouds 2200 ft
Overcast 3100 ft
Windchill 25 °F
Dew Point 29 °F
Humidity 82%
Rainfall 0.01 in
Snow Depth Not available.
UV 1 out of 12
Pollen 1.60 out of 12
Air Quality Not available.
Flu Activity Not available.
SPECI KGRR 292043Z 21012KT 3SM -SN SCT022 OVC031 01/M02 A2984 RMK AO2 PK WND 20027/2002 P0003 T00111017

More Conditions Fewer Conditions

Pressure 29.84 in
Visibility 3.0 miles
Clouds Scattered Clouds 2200 ft
Overcast 3100 ft
Windchill 25 °F
Dew Point 29 °F
Humidity 82%
Rainfall 0.01 in
Snow Depth Not available.
UV 1 out of 12
Pollen 1.60 out of 12
Air Quality Not available.
Flu Activity Not available.
SPECI KGRR 292043Z 21012KT 3SM -SN SCT022 OVC031 01/M02 A2984 RMK AO2 PK WND 20027/2002 P0003 T00111017

More Conditions Fewer Conditions

10-Day Weather Forecast

Almanac

Astronomy

Mar. 29, 2015 Rise Set
Actual Time
Civil Twilight
Nautical Twilight
Astronomical Twilight
Moon
Length of Visible Light
Length of Day
Tomorrow will be .
, % of the Moon is Illuminated

Today's Extremes

State Highs State Lows

Community

WunderPhotos

Upload Photos

1,809,347 photos uploaded!

WunderBlogs® & News

Nearby

Air Quality

  Air Quality AQ Index Pollutant
Not available.

Snow Depth

Station Depth Elevation

Earthquake Activity

City Distance Mag. Time & Date
Minimum magnitude displayed is 2.5.

Coastal Water Temperatures

Place Temperature

Stations

Nearby Weather Stations

Station Location Temp. Windchill Dew Point Humidity Wind Precip. Elev Updated Type